Observation data for Spur on 05/15/2018      Previous  Date  Next       Current Mesonet Observations  Soil Data  Daily Summary Page  Observations in Plain Language
KSP1 150500Z 15009G14KT 23/12 A2991 RMK A01 T02280121  RH  053%=      5-min Rain = 0
KSP1 150505Z 15007G12KT 23/12 A2991 RMK A01 T02280122  RH  053%=      5-min Rain = 0
KSP1 150510Z 16007KT 23/12 A2991 RMK A01 T02270123  RH  054%=      5-min Rain = 0
KSP1 150515Z 16007KT 23/13 A299 RMK A01 T02260125  RH  055%=      5-min Rain = 0
KSP1 150520Z 15007KT 23/13 A299 RMK A01 T02260127  RH  056%=      5-min Rain = 0
KSP1 150525Z 15007KT 23/13 A299 RMK A01 T02260129  RH  056%=      5-min Rain = 0
KSP1 150530Z 15006KT 22/13 A299 RMK A01 T02240130  RH  057%=      5-min Rain = 0
KSP1 150535Z 15006KT 22/13 A2991 RMK A01 T02230132  RH  059%=      5-min Rain = 0
KSP1 150540Z 15005KT 22/13 A2991 RMK A01 T02210134  RH  060%=      5-min Rain = 0
KSP1 150545Z 16005KT 22/14 A2991 RMK A01 T02200135  RH  061%=      5-min Rain = 0
KSP1 150550Z 16005KT 22/14 A2991 RMK A01 T02180136  RH  062%=      5-min Rain = 0
KSP1 150555Z 16004KT 22/14 A2991 RMK A01 T02170137  RH  063%=      5-min Rain = 0
KSP1 150600Z 15004KT 22/14 A2991 RMK A01 T02150138  RH  064%=      5-min Rain = 0
KSP1 150605Z 15003KT 21/14 A2991 RMK A01 T02130139  RH  065%=      5-min Rain = 0
KSP1 150610Z 16002KT 21/14 A2992 RMK A01 T02110139  RH  066%=      5-min Rain = 0
KSP1 150615Z 17001KT 21/14 A2992 RMK A01 T02100140  RH  067%=      5-min Rain = 0
KSP1 150620Z 18001G6KT 21/14 A2992 RMK A01 T02090141  RH  068%=      5-min Rain = 0
KSP1 150625Z 21004KT 21/15 A2993 RMK A01 T02110145  RH  069%=      5-min Rain = 0
KSP1 150630Z 23002KT 21/15 A2994 RMK A01 T02140145  RH  068%=      5-min Rain = 0
KSP1 150635Z 33003KT 22/15 A2995 RMK A01 T02150145  RH  067%=      5-min Rain = 0
KSP1 150640Z 36005KT 21/14 A2995 RMK A01 T02140144  RH  067%=      5-min Rain = 0
KSP1 150645Z 03005KT 21/14 A2995 RMK A01 T02110142  RH  067%=      5-min Rain = 0
KSP1 150650Z 05006KT 21/14 A2994 RMK A01 T02080141  RH  068%=      5-min Rain = 0
KSP1 150655Z 06006KT 21/14 A2995 RMK A01 T02070140  RH  068%=      5-min Rain = 0
KSP1 150700Z 05006KT 21/14 A2994 RMK A01 T02070140  RH  068%=      5-min Rain = 0
KSP1 150705Z 07003KT 21/14 A2994 RMK A01 T02100140  RH  067%=      5-min Rain = 0
KSP1 150710Z 10004KT 21/14 A2994 RMK A01 T02110141  RH  067%=      5-min Rain = 0
KSP1 150715Z 12003KT 21/14 A2994 RMK A01 T02130140  RH  066%=      5-min Rain = 0
KSP1 150720Z 18003KT 21/14 A2994 RMK A01 T02110140  RH  067%=      5-min Rain = 0
KSP1 150725Z 16004KT 21/14 A2994 RMK A01 T02060139  RH  068%=      5-min Rain = 0
KSP1 150730Z 15003KT 21/14 A2994 RMK A01 T02050139  RH  068%=      5-min Rain = 0
KSP1 150735Z 12003KT 21/14 A2994 RMK A01 T02060140  RH  068%=      5-min Rain = 0
KSP1 150740Z 12002KT 21/14 A2994 RMK A01 T02070140  RH  068%=      5-min Rain = 0
KSP1 150745Z 21001KT 21/14 A2994 RMK A01 T02050138  RH  068%=      5-min Rain = 0
KSP1 150750Z 18003KT 20/14 A2994 RMK A01 T02010137  RH  070%=      5-min Rain = 0
KSP1 150755Z 21003KT 20/14 A2994 RMK A01 T01990137  RH  070%=      5-min Rain = 0
KSP1 150800Z 20005KT 20/14 A2994 RMK A01 T01950135  RH  071%=      5-min Rain = 0
KSP1 150805Z 19006KT 20/13 A2993 RMK A01 T01960134  RH  070%=      5-min Rain = 0
KSP1 150810Z 20006KT 20/13 A2993 RMK A01 T02030130  RH  065%=      5-min Rain = 0
KSP1 150815Z 20006KT 21/13 A2993 RMK A01 T02060130  RH  064%=      5-min Rain = 0
KSP1 150820Z 20005KT 20/13 A2993 RMK A01 T02040129  RH  064%=      5-min Rain = 0
KSP1 150825Z 19004KT 20/13 A2992 RMK A01 T02010128  RH  065%=      5-min Rain = 0
KSP1 150830Z 19003KT 20/13 A2992 RMK A01 T01990128  RH  066%=      5-min Rain = 0
KSP1 150835Z 18002KT 20/13 A2992 RMK A01 T01970128  RH  067%=      5-min Rain = 0
KSP1 150840Z 18002KT 20/13 A2992 RMK A01 T01960128  RH  067%=      5-min Rain = 0
KSP1 150845Z 17001KT 20/13 A2992 RMK A01 T01960128  RH  067%=      5-min Rain = 0
KSP1 150850Z 18002KT 20/13 A2992 RMK A01 T01950127  RH  067%=      5-min Rain = 0
KSP1 150855Z 20002KT 20/13 A2992 RMK A01 T01950127  RH  067%=      5-min Rain = 0
KSP1 150900Z 23002KT 19/13 A2992 RMK A01 T01940126  RH  067%=      5-min Rain = 0
KSP1 150905Z 23002KT 19/13 A2991 RMK A01 T01930126  RH  068%=      5-min Rain = 0
KSP1 150910Z 24002KT 19/13 A2991 RMK A01 T01910125  RH  068%=      5-min Rain = 0
KSP1 150915Z 26003KT 19/13 A2991 RMK A01 T01880125  RH  069%=      5-min Rain = 0
KSP1 150920Z 26004KT 19/13 A2991 RMK A01 T01850125  RH  070%=      5-min Rain = 0
KSP1 150925Z 26004KT 18/12 A2991 RMK A01 T01840124  RH  071%=      5-min Rain = 0
KSP1 150930Z 26006KT 18/12 A2991 RMK A01 T01800119  RH  070%=      5-min Rain = 0
KSP1 150935Z 24004KT 18/12 A2991 RMK A01 T01780121  RH  072%=      5-min Rain = 0
KSP1 150940Z 25005KT 18/13 A2991 RMK A01 T01810125  RH  072%=      5-min Rain = 0
KSP1 150945Z 26004KT 18/12 A2991 RMK A01 T01800124  RH  072%=      5-min Rain = 0
KSP1 150950Z 25003KT 18/12 A2991 RMK A01 T01770124  RH  074%=      5-min Rain = 0
KSP1 150955Z 26003KT 18/13 A299 RMK A01 T01760125  RH  075%=      5-min Rain = 0
KSP1 151000Z 26004KT 18/13 A299 RMK A01 T01770126  RH  075%=      5-min Rain = 0
KSP1 151005Z 27003KT 18/13 A299 RMK A01 T01770128  RH  076%=      5-min Rain = 0
KSP1 151010Z 28002KT 18/13 A299 RMK A01 T01780129  RH  076%=      5-min Rain = 0
KSP1 151015Z 27002KT 18/13 A299 RMK A01 T01790129  RH  075%=      5-min Rain = 0
KSP1 151020Z 26003KT 18/13 A2989 RMK A01 T01780128  RH  075%=      5-min Rain = 0
KSP1 151025Z 26003KT 18/13 A2989 RMK A01 T01780128  RH  075%=      5-min Rain = 0
KSP1 151030Z 25003KT 18/13 A2989 RMK A01 T01790128  RH  075%=      5-min Rain = 0
KSP1 151035Z 26003KT 18/13 A2989 RMK A01 T01780129  RH  075%=      5-min Rain = 0
KSP1 151040Z 26002KT 18/13 A2989 RMK A01 T01780129  RH  076%=      5-min Rain = 0
KSP1 151045Z 27002KT 18/13 A2989 RMK A01 T01770128  RH  076%=      5-min Rain = 0
KSP1 151050Z 28001KT 18/13 A2989 RMK A01 T01760128  RH  076%=      5-min Rain = 0
KSP1 151055Z 28001KT 18/13 A2989 RMK A01 T01760129  RH  077%=      5-min Rain = 0
KSP1 151100Z 28002KT 18/13 A2989 RMK A01 T01760130  RH  077%=      5-min Rain = 0
KSP1 151105Z 29002KT 18/13 A2989 RMK A01 T01750128  RH  077%=      5-min Rain = 0
KSP1 151110Z 29003KT 18/13 A2989 RMK A01 T01750130  RH  078%=      5-min Rain = 0
KSP1 151115Z 29004KT 18/13 A2989 RMK A01 T01770132  RH  078%=      5-min Rain = 0
KSP1 151120Z 29004KT 18/13 A2989 RMK A01 T01770132  RH  078%=      5-min Rain = 0
KSP1 151125Z 28003KT 18/13 A299 RMK A01 T01780133  RH  078%=      5-min Rain = 0
KSP1 151130Z 28003KT 18/13 A299 RMK A01 T01790134  RH  078%=      5-min Rain = 0
KSP1 151135Z 28003KT 18/14 A299 RMK A01 T01800135  RH  078%=      5-min Rain = 0
KSP1 151140Z 28003KT 18/14 A299 RMK A01 T01810136  RH  078%=      5-min Rain = 0
KSP1 151145Z 28003KT 18/14 A299 RMK A01 T01800135  RH  078%=      5-min Rain = 0
KSP1 151150Z 29003KT 18/14 A299 RMK A01 T01810137  RH  079%=      5-min Rain = 0
KSP1 151155Z 28003KT 18/14 A299 RMK A01 T01830139  RH  079%=      5-min Rain = 0
KSP1 151200Z 29003KT 19/14 A2991 RMK A01 T01860140  RH  078%=      5-min Rain = 0
KSP1 151205Z 29004KT 19/14 A2991 RMK A01 T01870140  RH  077%=      5-min Rain = 0
KSP1 151210Z 28003KT 19/14 A2991 RMK A01 T01880141  RH  078%=      5-min Rain = 0
KSP1 151215Z 28004KT 19/14 A2991 RMK A01 T01880142  RH  078%=      5-min Rain = 0
KSP1 151220Z 29004KT 19/14 A2991 RMK A01 T01880142  RH  078%=      5-min Rain = 0
KSP1 151225Z 29004KT 19/14 A2991 RMK A01 T01890143  RH  078%=      5-min Rain = 0
KSP1 151230Z 29004KT 19/14 A2991 RMK A01 T01900144  RH  078%=      5-min Rain = 0
KSP1 151235Z 29004KT 19/15 A2991 RMK A01 T01910145  RH  078%=      5-min Rain = 0
KSP1 151240Z 30004KT 19/15 A2991 RMK A01 T01910145  RH  078%=      5-min Rain = 0
KSP1 151245Z 30004KT 19/14 A2992 RMK A01 T01900144  RH  078%=      5-min Rain = 0
KSP1 151250Z 30004KT 19/14 A2992 RMK A01 T01900144  RH  078%=      5-min Rain = 0
KSP1 151255Z 29004KT 19/15 A2992 RMK A01 T01900146  RH  079%=      5-min Rain = 0
KSP1 151300Z 29005KT 19/15 A2992 RMK A01 T01930147  RH  078%=      5-min Rain = 0
KSP1 151305Z 29005KT 20/15 A2992 RMK A01 T01950148  RH  077%=      5-min Rain = 0
KSP1 151310Z 28003KT 20/15 A2993 RMK A01 T01970148  RH  077%=      5-min Rain = 0
KSP1 151315Z 27003KT 20/15 A2993 RMK A01 T01980149  RH  077%=      5-min Rain = 0
KSP1 151320Z 25002KT 20/15 A2993 RMK A01 T02000150  RH  076%=      5-min Rain = 0
KSP1 151325Z 11005G10KT 20/15 A2995 RMK A01 T02020150  RH  075%=      5-min Rain = 0
KSP1 151330Z 11007G13KT 21/15 A2996 RMK A01 T02050150  RH  074%=      5-min Rain = 0
KSP1 151335Z 15005KT 21/15 A2995 RMK A01 T02100151  RH  072%=      5-min Rain = 0
KSP1 151340Z 17005KT 22/15 A2995 RMK A01 T02160151  RH  069%=      5-min Rain = 0
KSP1 151345Z 14005KT 22/15 A2996 RMK A01 T02200152  RH  068%=      5-min Rain = 0
KSP1 151350Z 12006KT 22/15 A2997 RMK A01 T02240152  RH  067%=      5-min Rain = 0
KSP1 151355Z 13007G12KT 23/15 A2997 RMK A01 T02310151  RH  063%=      5-min Rain = 0
KSP1 151400Z 16005G10KT 23/15 A2996 RMK A01 T02330150  RH  063%=      5-min Rain = 0
KSP1 151405Z 15007KT 23/15 A2996 RMK A01 T02340151  RH  062%=      5-min Rain = 0
KSP1 151410Z 14006KT 24/15 A2997 RMK A01 T02380151  RH  061%=      5-min Rain = 0
KSP1 151415Z 14006KT 24/15 A2997 RMK A01 T02400151  RH  060%=      5-min Rain = 0
KSP1 151420Z 16005KT 24/15 A2997 RMK A01 T02370150  RH  061%=      5-min Rain = 0
KSP1 151425Z 13004KT 24/15 A2997 RMK A01 T02370151  RH  061%=      5-min Rain = 0
KSP1 151430Z 14004KT 24/15 A2997 RMK A01 T02400152  RH  060%=      5-min Rain = 0
KSP1 151435Z 13003KT 24/15 A2997 RMK A01 T02430151  RH  059%=      5-min Rain = 0
KSP1 151440Z 11003KT 25/15 A2998 RMK A01 T02460153  RH  059%=      5-min Rain = 0
KSP1 151445Z 15005KT 25/15 A2998 RMK A01 T02480153  RH  058%=      5-min Rain = 0
KSP1 151450Z 12003G8KT 25/15 A2998 RMK A01 T02450153  RH  059%=      5-min Rain = 0
KSP1 151455Z 03004KT 25/15 A2999 RMK A01 T02470154  RH  059%=      5-min Rain = 0
KSP1 151500Z 05003KT 25/15 A2999 RMK A01 T02470152  RH  058%=      5-min Rain = 0
KSP1 151505Z 02005KT 25/15 A30 RMK A01 T02480154  RH  058%=      5-min Rain = 0
KSP1 151510Z 02002KT 25/15 A30 RMK A01 T02480153  RH  058%=      5-min Rain = 0
KSP1 151515Z 06003KT 25/15 A30 RMK A01 T02480153  RH  058%=      5-min Rain = 0
KSP1 151520Z 05003KT 25/15 A30 RMK A01 T02520153  RH  057%=      5-min Rain = 0
KSP1 151525Z 36006KT 26/15 A30 RMK A01 T02550154  RH  056%=      5-min Rain = 0
KSP1 151530Z 02006KT 25/15 A3001 RMK A01 T02500153  RH  057%=      5-min Rain = 0
KSP1 151535Z 02004KT 25/15 A30 RMK A01 T02470153  RH  058%=      5-min Rain = 0
KSP1 151540Z 12002KT 25/15 A2999 RMK A01 T02470153  RH  059%=      5-min Rain = 0
KSP1 151545Z 06002KT 25/16 A2999 RMK A01 T02530155  RH  057%=      5-min Rain = 0
KSP1 151550Z 02006KT 26/15 A30 RMK A01 T02590154  RH  055%=      5-min Rain = 0
KSP1 151555Z 27003KT 26/15 A2999 RMK A01 T02610154  RH  054%=      5-min Rain = 0
KSP1 151600Z 09002KT 26/15 A2999 RMK A01 T02590154  RH  055%=      5-min Rain = 0
KSP1 151605Z 03002KT 26/15 A30 RMK A01 T02610154  RH  054%=      5-min Rain = 0
KSP1 151610Z 03004G9KT 27/16 A2999 RMK A01 T02650155  RH  053%=      5-min Rain = 0
KSP1 151615Z 05003KT 27/16 A2998 RMK A01 T02650155  RH  053%=      5-min Rain = 0
KSP1 151620Z 05004KT 27/16 A2999 RMK A01 T02670155  RH  052%=      5-min Rain = 0
KSP1 151625Z 03005G10KT 27/15 A2999 RMK A01 T02690153  RH  051%=      5-min Rain = 0
KSP1 151630Z 05002KT 27/15 A2998 RMK A01 T02710152  RH  050%=      5-min Rain = 0
KSP1 151635Z 12003KT 27/15 A2998 RMK A01 T02730152  RH  050%=      5-min Rain = 0
KSP1 151640Z 06006KT 28/15 A2999 RMK A01 T02750152  RH  049%=      5-min Rain = 0
KSP1 151645Z 04003G11KT 27/15 A2998 RMK A01 T02740151  RH  049%=      5-min Rain = 0
KSP1 151650Z 13003KT 28/15 A2997 RMK A01 T02770151  RH  048%=      5-min Rain = 0
KSP1 151655Z 07007G14KT 28/15 A2998 RMK A01 T02780150  RH  048%=      5-min Rain = 0
KSP1 151700Z 13007KT 28/15 A2997 RMK A01 T02760150  RH  048%=      5-min Rain = 0
KSP1 151705Z 20006G11KT 28/15 A2997 RMK A01 T02760150  RH  048%=      5-min Rain = 0
KSP1 151710Z 08007G12KT 28/15 A2998 RMK A01 T02800148  RH  047%=      5-min Rain = 0
KSP1 151715Z 14008G14KT 28/15 A2998 RMK A01 T02790148  RH  047%=      5-min Rain = 0
KSP1 151720Z 11006KT 28/15 A2998 RMK A01 T02830146  RH  045%=      5-min Rain = 0
KSP1 151725Z 13006G12KT 29/15 A2998 RMK A01 T02860145  RH  044%=      5-min Rain = 0
KSP1 151730Z 11008KT 29/14 A2998 RMK A01 T02870144  RH  044%=      5-min Rain = 0
KSP1 151735Z 08007KT 28/15 A2999 RMK A01 T02790146  RH  046%=      5-min Rain = 0
KSP1 151740Z 10005KT 28/14 A2999 RMK A01 T02770144  RH  046%=      5-min Rain = 0
KSP1 151745Z 10004KT 28/15 A2999 RMK A01 T02780145  RH  046%=      5-min Rain = 0
KSP1 151750Z 12003KT 28/14 A2998 RMK A01 T02830143  RH  044%=      5-min Rain = 0
KSP1 151755Z 09006KT 29/14 A2998 RMK A01 T02870142  RH  043%=      5-min Rain = 0
KSP1 151800Z 07006KT 28/14 A2998 RMK A01 T02820143  RH  044%=      5-min Rain = 0
KSP1 151805Z 11006G11KT 28/14 A2999 RMK A01 T02840142  RH  044%=      5-min Rain = 0
KSP1 151810Z 13004KT 29/14 A2998 RMK A01 T02860141  RH  043%=      5-min Rain = 0
KSP1 151815Z 10006KT 29/14 A2998 RMK A01 T02870141  RH  043%=      5-min Rain = 0
KSP1 151820Z 08007KT 29/14 A2998 RMK A01 T02880142  RH  043%=      5-min Rain = 0
KSP1 151825Z 06006G11KT 29/14 A2998 RMK A01 T02860141  RH  043%=      5-min Rain = 0
KSP1 151830Z 09004G9KT 29/14 A2998 RMK A01 T02910141  RH  042%=      5-min Rain = 0
KSP1 151835Z 11006G11KT 30/14 A2998 RMK A01 T02950137  RH  040%=      5-min Rain = 0
KSP1 151840Z 07009G14KT 29/14 A2998 RMK A01 T02890140  RH  042%=      5-min Rain = 0
KSP1 151845Z 07006KT 29/14 A2998 RMK A01 T02900138  RH  041%=      5-min Rain = 0
KSP1 151850Z 09005G11KT 29/14 A2997 RMK A01 T02920137  RH  040%=      5-min Rain = 0
KSP1 151855Z 08007KT 29/14 A2997 RMK A01 T02940135  RH  039%=      5-min Rain = 0
KSP1 151900Z 11006G11KT 29/13 A2997 RMK A01 T02940133  RH  039%=      5-min Rain = 0
KSP1 151905Z 12005G14KT 30/13 A2997 RMK A01 T02960133  RH  038%=      5-min Rain = 0
KSP1 151910Z 11004G9KT 30/13 A2997 RMK A01 T02980133  RH  038%=      5-min Rain = 0
KSP1 151915Z 12005G12KT 30/13 A2997 RMK A01 T03020129  RH  036%=      5-min Rain = 0
KSP1 151920Z 09009G16KT 30/13 A2997 RMK A01 T03010134  RH  037%=      5-min Rain = 0
KSP1 151925Z 10011KT 30/13 A2997 RMK A01 T02950132  RH  038%=      5-min Rain = 0
KSP1 151930Z 10005KT 29/13 A2997 RMK A01 T02930131  RH  039%=      5-min Rain = 0
KSP1 151935Z 11004G9KT 30/13 A2997 RMK A01 T02990128  RH  036%=      5-min Rain = 0
KSP1 151940Z 09010G16KT 30/13 A2997 RMK A01 T03010129  RH  036%=      5-min Rain = 0
KSP1 151945Z 09007G12KT 30/13 A2997 RMK A01 T03030127  RH  036%=      5-min Rain = 0
KSP1 151950Z 09005G10KT 30/13 A2997 RMK A01 T03020126  RH  035%=      5-min Rain = 0
KSP1 151955Z 10008G14KT 30/12 A2996 RMK A01 T03040124  RH  035%=      5-min Rain = 0
KSP1 152000Z 09008G13KT 30/12 A2996 RMK A01 T03030124  RH  034%=      5-min Rain = 0
KSP1 152005Z 10007KT 30/12 A2996 RMK A01 T03040123  RH  034%=      5-min Rain = 0
KSP1 152010Z 10005G10KT 31/12 A2995 RMK A01 T03070122  RH  033%=      5-min Rain = 0
KSP1 152015Z 12008G14KT 31/12 A2995 RMK A01 T03080120  RH  033%=      5-min Rain = 0
KSP1 152020Z 12008G17KT 31/12 A2995 RMK A01 T03090121  RH  033%=      5-min Rain = 0
KSP1 152025Z 10010KT 31/12 A2995 RMK A01 T03080124  RH  034%=      5-min Rain = 0
KSP1 152030Z 09006KT 31/12 A2994 RMK A01 T03070123  RH  034%=      5-min Rain = 0
KSP1 152035Z 08009KT 31/12 A2994 RMK A01 T03110122  RH  033%=      5-min Rain = 0
KSP1 152040Z 10008G13KT 31/12 A2994 RMK A01 T03110119  RH  032%=      5-min Rain = 0
KSP1 152045Z 09008G13KT 31/12 A2994 RMK A01 T03130118  RH  031%=      5-min Rain = 0
KSP1 152050Z 06007KT 31/11 A2993 RMK A01 T03140114  RH  030%=      5-min Rain = 0
KSP1 152055Z 10008G13KT 31/12 A2993 RMK A01 T03140116  RH  031%=      5-min Rain = 0
KSP1 152100Z 13007KT 32/12 A2993 RMK A01 T03150118  RH  031%=      5-min Rain = 0
KSP1 152105Z 06008G13KT 32/12 A2992 RMK A01 T03150116  RH  031%=      5-min Rain = 0
KSP1 152110Z 06006G13KT 32/11 A2991 RMK A01 T03160113  RH  030%=      5-min Rain = 0
KSP1 152115Z 09010KT 31/11 A2991 RMK A01 T03140113  RH  030%=      5-min Rain = 0
KSP1 152120Z 10007KT 31/11 A2991 RMK A01 T03110111  RH  030%=      5-min Rain = 0
KSP1 152125Z 09006KT 31/11 A299 RMK A01 T03140108  RH  029%=      5-min Rain = 0
KSP1 152130Z 05009G15KT 32/11 A299 RMK A01 T03200110  RH  029%=      5-min Rain = 0
KSP1 152135Z 09007KT 32/11 A299 RMK A01 T03190112  RH  029%=      5-min Rain = 0
KSP1 152140Z 07008G13KT 32/11 A2989 RMK A01 T03180113  RH  030%=      5-min Rain = 0
KSP1 152145Z 06009KT 32/11 A2989 RMK A01 T03170112  RH  029%=      5-min Rain = 0
KSP1 152150Z 07007G12KT 32/11 A2989 RMK A01 T03180109  RH  029%=      5-min Rain = 0
KSP1 152155Z 09011G16KT 32/11 A2989 RMK A01 T03180112  RH  029%=      5-min Rain = 0
KSP1 152200Z 10008KT 32/11 A2989 RMK A01 T03160110  RH  029%=      5-min Rain = 0
KSP1 152205Z 09008KT 31/11 A2989 RMK A01 T03110110  RH  030%=      5-min Rain = 0
KSP1 152210Z 08007G12KT 31/11 A2989 RMK A01 T03100109  RH  030%=      5-min Rain = 0
KSP1 152215Z 09008KT 31/11 A2989 RMK A01 T03100110  RH  030%=      5-min Rain = 0
KSP1 152220Z 10009G16KT 31/11 A2989 RMK A01 T03080109  RH  031%=      5-min Rain = 0
KSP1 152225Z 10006G11KT 31/11 A2988 RMK A01 T03070108  RH  030%=      5-min Rain = 0
KSP1 152230Z 10005KT 31/11 A2988 RMK A01 T03070107  RH  030%=      5-min Rain = 0
KSP1 152235Z 09007KT 31/11 A2989 RMK A01 T03070107  RH  030%=      5-min Rain = 0
KSP1 152240Z 10008KT 31/11 A2989 RMK A01 T03060109  RH  031%=      5-min Rain = 0
KSP1 152245Z 10008KT 31/11 A2988 RMK A01 T03050109  RH  031%=      5-min Rain = 0
KSP1 152250Z 10007KT 30/11 A2988 RMK A01 T03040110  RH  031%=      5-min Rain = 0
KSP1 152255Z 10008KT 30/11 A2988 RMK A01 T03040111  RH  032%=      5-min Rain = 0
KSP1 152300Z 13006KT 30/11 A2988 RMK A01 T03040112  RH  032%=      5-min Rain = 0
KSP1 152305Z 14005KT 30/11 A2988 RMK A01 T03030113  RH  032%=      5-min Rain = 0
KSP1 152310Z 15006KT 30/11 A2988 RMK A01 T03000114  RH  033%=      5-min Rain = 0
KSP1 152315Z 15006KT 30/11 A2988 RMK A01 T02980112  RH  033%=      5-min Rain = 0
KSP1 152320Z 15007KT 30/11 A2987 RMK A01 T02970113  RH  033%=      5-min Rain = 0
KSP1 152325Z 15007KT 30/11 A2987 RMK A01 T02970113  RH  033%=      5-min Rain = 0
KSP1 152330Z 13005KT 30/11 A2987 RMK A01 T02980113  RH  033%=      5-min Rain = 0
KSP1 152335Z 12005KT 30/11 A2987 RMK A01 T02990112  RH  033%=      5-min Rain = 0
KSP1 152340Z 14005KT 30/11 A2987 RMK A01 T02990113  RH  033%=      5-min Rain = 0
KSP1 152345Z 15005KT 30/11 A2987 RMK A01 T02970114  RH  033%=      5-min Rain = 0
KSP1 152350Z 14005KT 30/11 A2987 RMK A01 T02950114  RH  034%=      5-min Rain = 0
KSP1 152355Z 13003KT 29/11 A2988 RMK A01 T02940114  RH  034%=      5-min Rain = 0
KSP1 160000Z 14003KT 29/11 A2988 RMK A01 T02930114  RH  034%=      5-min Rain = 0
KSP1 160005Z 17002KT 29/11 A2989 RMK A01 T02930114  RH  034%=      5-min Rain = 0
KSP1 160010Z 21002KT 29/12 A299 RMK A01 T02920115  RH  035%=      5-min Rain = 0
KSP1 160015Z 29001KT 29/11 A2991 RMK A01 T02920114  RH  034%=      5-min Rain = 0
KSP1 160020Z 33001KT 29/11 A2991 RMK A01 T02920114  RH  034%=      5-min Rain = 0
KSP1 160025Z 33001KT 29/11 A2991 RMK A01 T02920114  RH  034%=      5-min Rain = 0
KSP1 160030Z 11004KT 29/12 A299 RMK A01 T02910115  RH  035%=      5-min Rain = 0
KSP1 160035Z 08008KT 29/12 A2989 RMK A01 T02920118  RH  036%=      5-min Rain = 0
KSP1 160040Z 07008KT 29/11 A2988 RMK A01 T02930111  RH  034%=      5-min Rain = 0
KSP1 160045Z 06011G29KT 29/07 A2985 RMK A01 T02940067  RH  025%=      5-min Rain = 0
KSP1 160050Z 01009G14KT 30/03 A2985 RMK A01 T03030028  RH  018%=      5-min Rain = 0
KSP1 160055Z 09006KT 30/06 A2986 RMK A01 T03000062  RH  023%=      5-min Rain = 0
KSP1 160100Z 08009KT 30/08 A2985 RMK A01 T02970079  RH  026%=      5-min Rain = 0
KSP1 160105Z 07009G18KT 30/08 A2985 RMK A01 T02970084  RH  027%=      5-min Rain = 0
KSP1 160110Z 06015G23KT 29/10 A2985 RMK A01 T02920095  RH  030%=      5-min Rain = 0
KSP1 160115Z 06013G20KT 29/07 A2984 RMK A01 T02900072  RH  026%=      5-min Rain = 0
KSP1 160120Z 06011KT 29/07 A2984 RMK A01 T02900070  RH  026%=      5-min Rain = 0
KSP1 160125Z 06008G13KT 29/08 A2985 RMK A01 T02890075  RH  027%=      5-min Rain = 0
KSP1 160130Z 07011G16KT 29/09 A2985 RMK A01 T02850087  RH  030%=      5-min Rain = 0
KSP1 160135Z 05013G19KT 28/08 A2985 RMK A01 T02820080  RH  029%=      5-min Rain = 0
KSP1 160140Z 05013G20KT 28/07 A2985 RMK A01 T02800073  RH  028%=      5-min Rain = 0
KSP1 160145Z 06009G14KT 28/07 A2985 RMK A01 T02780065  RH  027%=      5-min Rain = 0
KSP1 160150Z 06008G13KT 28/06 A2986 RMK A01 T02770060  RH  026%=      5-min Rain = 0
KSP1 160155Z 05010KT 28/05 A2987 RMK A01 T02750050  RH  024%=      5-min Rain = 0
KSP1 160200Z 05008G14KT 27/05 A2987 RMK A01 T02730046  RH  024%=      5-min Rain = 0
KSP1 160205Z 06008KT 27/05 A2987 RMK A01 T02710045  RH  024%=      5-min Rain = 0
KSP1 160210Z 06007KT 27/05 A2988 RMK A01 T02690046  RH  024%=      5-min Rain = 0
KSP1 160215Z 06007KT 27/05 A2989 RMK A01 T02670050  RH  026%=      5-min Rain = 0
KSP1 160220Z 06008KT 26/06 A299 RMK A01 T02620056  RH  027%=      5-min Rain = 0
KSP1 160225Z 07008G13KT 26/07 A2991 RMK A01 T02580067  RH  030%=      5-min Rain = 0
KSP1 160230Z 08009KT 26/07 A2991 RMK A01 T02550073  RH  032%=      5-min Rain = 0
KSP1 160235Z 08012G19KT 25/07 A2992 RMK A01 T02540074  RH  033%=      5-min Rain = 0
KSP1 160240Z 08012G17KT 25/08 A2992 RMK A01 T02530079  RH  034%=      5-min Rain = 0
KSP1 160245Z 08010G15KT 25/09 A2992 RMK A01 T02490091  RH  038%=      5-min Rain = 0
KSP1 160250Z 09010G15KT 25/10 A2993 RMK A01 T02460101  RH  041%=      5-min Rain = 0
KSP1 160255Z 10011G18KT 24/11 A2993 RMK A01 T02420110  RH  045%=      5-min Rain = 0
KSP1 160300Z 11009G14KT 24/12 A2994 RMK A01 T02380117  RH  048%=      5-min Rain = 0
KSP1 160305Z 12009KT 24/12 A2994 RMK A01 T02370122  RH  050%=      5-min Rain = 0
KSP1 160310Z 11009G14KT 24/12 A2995 RMK A01 T02380122  RH  050%=      5-min Rain = 0
KSP1 160315Z 12009G14KT 24/12 A2996 RMK A01 T02390121  RH  050%=      5-min Rain = 0
KSP1 160320Z 12009KT 24/12 A2996 RMK A01 T02390121  RH  049%=      5-min Rain = 0
KSP1 160325Z 12005G10KT 24/12 A2997 RMK A01 T02380122  RH  050%=      5-min Rain = 0
KSP1 160330Z 10005KT 24/12 A2998 RMK A01 T02380123  RH  051%=      5-min Rain = 0
KSP1 160335Z 05005KT 24/13 A30 RMK A01 T02380125  RH  051%=      5-min Rain = 0
KSP1 160340Z 04009KT 24/13 A3002 RMK A01 T02380125  RH  051%=      5-min Rain = 0
KSP1 160345Z 04011G17KT 24/12 A3003 RMK A01 T02370123  RH  051%=      5-min Rain = 0
KSP1 160350Z 03013G19KT 23/11 A3003 RMK A01 T02310111  RH  048%=      5-min Rain = 0
KSP1 160355Z 03014G20KT 22/11 A3003 RMK A01 T02220113  RH  052%=      5-min Rain = 0
KSP1 160400Z 04014G20KT 22/11 A3003 RMK A01 T02180114  RH  053%=      5-min Rain = 0
KSP1 160405Z 06013G19KT 22/12 A3003 RMK A01 T02180116  RH  055%=      5-min Rain = 0
KSP1 160410Z 05012KT 22/12 A3004 RMK A01 T02160119  RH  056%=      5-min Rain = 0
KSP1 160415Z 05014G20KT 21/13 A3004 RMK A01 T02120125  RH  060%=      5-min Rain = 0
KSP1 160420Z 06012G18KT 21/13 A3004 RMK A01 T02060130  RH  064%=      5-min Rain = 0
KSP1 160425Z 06013G18KT 20/13 A3003 RMK A01 T02020133  RH  067%=      5-min Rain = 0
KSP1 160430Z 06015G22KT 20/13 A3003 RMK A01 T01970134  RH  070%=      5-min Rain = 0
KSP1 160435Z 06015G22KT 19/13 A3003 RMK A01 T01900134  RH  073%=      5-min Rain = 0
KSP1 160440Z 06017G24KT 18/13 A3003 RMK A01 T01810133  RH  077%=      5-min Rain = 0
KSP1 160445Z 06015G20KT 18/13 A3002 RMK A01 T01770129  RH  077%=      5-min Rain = 0
KSP1 160450Z 07016G23KT 18/12 A3002 RMK A01 T01750123  RH  074%=      5-min Rain = 0
KSP1 160455Z 07013G18KT 18/12 A3001 RMK A01 T01750117  RH  071%=      5-min Rain = 0

Page generated in 0.0094 seconds.